Ocean Park, Washington
Current Conditions -  °F | °C
As of 7:55 PM on Tuesday 21 Oct 2014 (Local Time) from KAST Reporting Station
Light Rain Light Rain  
Wind Chill: 56°   Ceiling: 3900
Heat Index: 56°   Visibility: 4mi
Dew Point: 52°   Wind: 6mph
Humidity: 87%   Direction: 160°SSE
Pressure: 29.81"   Gusts: NA
Location:  46.49°N, 124.05°W
Report Text: KAST 220255Z AUTO 16005KT 4SM -RA BR BKN039 OVC047 13/11 A2981 RMK AO2 SLP094 P0001 60002 T01330111 58017
Loading
Personal Weather Stations






























Interactive Weather Map
Tropical Storm Tracking
New forecast layout! Learn more

10-Day Weather Forecast

Advertisements
Track Severe Weather on mobile